Time;durP1;ratioP1;P1;durP2;ratioP2;P2;SDS_P1;SDS_P2;PMS_P1;PMS_P2;Temp;Humidity;BMP_temperature;BMP_pressure;BME280_temperature;BME280_humidity;BME280_pressure;Samples;Min_cycle;Max_cycle;Signal;HPM_P1;HPM_P2
2023/09/27 00:00:28;;;;;;;3.03;2.35;;;15.00;99.90;;;;;;5134830;27;20359;-64
2023/09/27 00:02:55;;;;;;;;;;;14.60;99.90;;;;;;5134975;27;20119;-64
2023/09/27 00:05:21;;;;;;;1.35;0.95;;;14.70;99.90;;;;;;5134295;27;20393;-64
2023/09/27 00:07:46;;;;;;;;;;;14.90;99.90;;;;;;5134870;27;20090;-64
2023/09/27 00:10:12;;;;;;;0.88;0.65;;;15.00;99.90;;;;;;5133967;27;19931;-64
2023/09/27 00:12:38;;;;;;;;;;;14.80;99.90;;;;;;5134878;27;20054;-64
2023/09/27 00:15:06;;;;;;;;;;;14.70;99.90;;;;;;5134616;27;19926;-64
2023/09/27 00:17:31;;;;;;;;;;;14.40;99.90;;;;;;5134526;27;19923;-64
2023/09/27 00:19:57;;;;;;;;;;;14.60;99.90;;;;;;5134754;27;20371;-65
2023/09/27 00:22:24;;;;;;;;;;;14.60;99.90;;;;;;5135019;27;19930;-63
2023/09/27 00:24:50;;;;;;;;;;;14.40;99.90;;;;;;5135031;27;19919;-63
2023/09/27 00:27:16;;;;;;;;;;;14.20;99.90;;;;;;5134681;27;20294;-64
2023/09/27 00:29:41;;;;;;;;;;;14.20;99.90;;;;;;5134933;27;19930;-64
2023/09/27 00:32:08;;;;;;;;;;;14.50;99.90;;;;;;5134864;27;20395;-64
2023/09/27 00:34:34;;;;;;;;;;;14.10;99.90;;;;;;5134890;27;19966;-64
2023/09/27 00:37:00;;;;;;;;;;;14.50;99.90;;;;;;5134862;27;19923;-64
2023/09/27 00:39:25;;;;;;;;;;;14.00;99.90;;;;;;5134707;27;19937;-63
2023/09/27 00:41:51;;;;;;;;;;;14.40;99.90;;;;;;5134805;27;20017;-63
2023/09/27 00:44:16;;;;;;;;;;;14.30;99.90;;;;;;5134970;27;20325;-64
2023/09/27 00:46:43;;;;;;;;;;;14.50;99.90;;;;;;5134592;27;20021;-64
2023/09/27 00:49:09;;;;;;;;;;;14.20;99.90;;;;;;5134275;27;20666;-63
2023/09/27 00:51:35;;;;;;;;;;;14.10;99.90;;;;;;5116406;27;19920;-64
2023/09/27 00:54:01;;;;;;;;;;;14.40;99.90;;;;;;5134484;27;19919;-63
2023/09/27 00:56:27;;;;;;;;;;;13.90;99.90;;;;;;5134371;27;19927;-63
2023/09/27 00:58:53;;;;;;;;;;;14.20;99.90;;;;;;5134045;27;20379;-64
2023/09/27 01:01:19;;;;;;;;;;;14.40;99.90;;;;;;5116133;27;20022;-64
2023/09/27 01:03:46;;;;;;;;;;;14.10;99.90;;;;;;5134294;27;20021;-64
2023/09/27 01:06:12;;;;;;;;;;;14.20;99.90;;;;;;5134145;27;19919;-63
2023/09/27 01:08:38;;;;;;;;;;;14.20;99.90;;;;;;5134115;27;20017;-64
2023/09/27 01:11:04;;;;;;;;;;;14.30;99.90;;;;;;5133773;27;20013;-63
2023/09/27 01:13:30;;;;;;;;;;;14.30;99.90;;;;;;5134075;27;20393;-64
2023/09/27 01:15:55;;;;;;;;;;;14.50;99.90;;;;;;5133621;27;19974;-64
2023/09/27 01:18:21;;;;;;;;;;;14.00;99.90;;;;;;5133948;27;19919;-64
2023/09/27 01:20:46;;;;;;;;;;;13.80;99.90;;;;;;5133140;27;19919;-64
2023/09/27 01:23:12;;;;;;;;;;;14.00;99.90;;;;;;5133833;27;20332;-64
2023/09/27 01:25:38;;;;;;;;;;;14.30;99.90;;;;;;5133844;27;19930;-65
2023/09/27 01:28:05;;;;;;;;;;;14.10;99.90;;;;;;5133890;27;20011;-64
2023/09/27 01:30:34;;;;;;;;;;;14.50;99.90;;;;;;5133720;27;19923;-64
2023/09/27 01:33:02;;;;;;;;;;;14.20;99.90;;;;;;5133396;27;20687;-64
2023/09/27 01:35:28;;;;;;;;;;;14.30;99.90;;;;;;5133590;27;19927;-64
2023/09/27 01:37:53;;;;;;;;;;;14.40;99.90;;;;;;5133671;27;19972;-64
2023/09/27 01:40:22;;;;;;;;;;;14.10;99.90;;;;;;5133576;27;19955;-64
2023/09/27 01:42:48;;;;;;;;;;;14.10;99.90;;;;;;5133862;27;19993;-64
2023/09/27 01:45:13;;;;;;;;;;;14.30;99.90;;;;;;5133753;27;19919;-64
2023/09/27 01:47:39;;;;;;;;;;;14.10;99.90;;;;;;5133561;27;19930;-64
2023/09/27 01:50:06;;;;;;;;;;;14.40;99.90;;;;;;5133454;27;19919;-64
2023/09/27 01:52:32;;;;;;;;;;;14.30;99.90;;;;;;5133406;27;19919;-64
2023/09/27 01:54:58;;;;;;;;;;;14.40;99.90;;;;;;5132977;27;20288;-64
2023/09/27 01:57:23;;;;;;;;;;;14.20;99.90;;;;;;5133286;27;19927;-65
2023/09/27 01:59:49;;;;;;;;;;;14.20;99.90;;;;;;5133569;27;20269;-64
2023/09/27 02:02:14;;;;;;;;;;;14.40;99.90;;;;;;5133233;27;19919;-64
2023/09/27 02:04:40;;;;;;;;;;;13.90;99.90;;;;;;5133196;27;19985;-64
2023/09/27 02:07:05;;;;;;;;;;;13.90;99.90;;;;;;5133113;27;20367;-64
2023/09/27 02:09:32;;;;;;;;;;;14.40;99.90;;;;;;5133087;27;20266;-64
2023/09/27 02:11:57;;;;;;;;;;;13.80;99.90;;;;;;5133086;27;19923;-64
2023/09/27 02:14:23;;;;;;;;;;;13.60;99.90;;;;;;5132966;27;19930;-64
2023/09/27 02:16:48;;;;;;;;;;;14.10;99.90;;;;;;5132600;27;20315;-66
2023/09/27 02:19:14;;;;;;;;;;;13.70;99.90;;;;;;5132986;28;19942;-64
2023/09/27 02:21:39;;;;;;;;;;;13.70;99.90;;;;;;5133075;28;20002;-64
2023/09/27 02:24:09;;;;;;;;;;;13.50;99.90;;;;;;5132984;28;19924;-64
2023/09/27 02:26:36;;;;;;;;;;;13.60;99.90;;;;;;5132908;28;19926;-64
2023/09/27 02:29:01;;;;;;;;;;;13.60;99.90;;;;;;5132696;28;20382;-64
2023/09/27 02:31:27;;;;;;;;;;;13.50;99.90;;;;;;5134060;27;19999;-64
2023/09/27 02:33:53;;;;;;;;;;;13.40;99.90;;;;;;5137468;27;19984;-64
2023/09/27 02:36:18;;;;;;;;;;;13.50;99.90;;;;;;5137442;27;19930;-64
2023/09/27 02:38:44;;;;;;;;;;;13.70;99.90;;;;;;5136716;27;19927;-65
2023/09/27 02:41:09;;;;;;;;;;;13.30;99.90;;;;;;5137015;27;19923;-65
2023/09/27 02:43:35;;;;;;;;;;;13.00;99.90;;;;;;5137011;27;19926;-64
2023/09/27 02:46:01;;;;;;;;;;;13.50;99.90;;;;;;5136949;27;19968;-65
2023/09/27 02:48:26;;;;;;;;;;;13.30;99.90;;;;;;5136954;27;20379;-64
2023/09/27 02:50:55;;;;;;;;;;;13.50;99.90;;;;;;5136810;27;19923;-64
2023/09/27 02:53:21;;;;;;;;;;;13.60;99.90;;;;;;5136843;27;19919;-65
2023/09/27 02:55:47;;;;;;;;;;;13.50;99.90;;;;;;5136697;27;20354;-64
2023/09/27 02:58:12;;;;;;;;;;;13.80;99.90;;;;;;5136718;27;20009;-65
2023/09/27 03:00:38;;;;;;;;;;;13.50;99.90;;;;;;5118310;27;20324;-64
2023/09/27 03:03:03;;;;;;;;;;;13.50;99.90;;;;;;5136741;27;20009;-64
2023/09/27 03:05:35;;;;;;;;;;;13.80;99.90;;;;;;5136651;27;19927;-65
2023/09/27 03:08:00;;;;;;;;;;;13.60;99.90;;;;;;5136722;27;19924;-65
2023/09/27 03:10:26;;;;;;;;;;;13.70;99.90;;;;;;5136637;27;19923;-65
2023/09/27 03:12:52;;;;;;;;;;;13.50;99.90;;;;;;5136492;27;19919;-64
2023/09/27 03:15:18;;;;;;;;;;;13.60;99.90;;;;;;5136606;27;20387;-65
2023/09/27 03:17:44;;;;;;;;;;;13.30;99.90;;;;;;5136326;27;20014;-65
2023/09/27 03:20:15;;;;;;;;;;;14.00;99.90;;;;;;5136524;27;19927;-64
2023/09/27 03:22:47;;;;;;;;;;;13.50;99.90;;;;;;5118973;27;19962;-64
2023/09/27 03:25:13;;;;;;;;;;;13.90;99.90;;;;;;5136246;27;19980;-64
2023/09/27 03:27:39;;;;;;;;;;;13.50;99.90;;;;;;5136186;27;20426;-65
2023/09/27 03:30:05;;;;;;;;;;;13.80;99.90;;;;;;5136090;27;19923;-65
2023/09/27 03:32:32;;;;;;;;;;;13.40;99.90;;;;;;5136104;27;20060;-65
2023/09/27 03:34:57;;;;;;;;;;;13.60;99.90;;;;;;5117839;27;19923;-64
2023/09/27 03:37:23;;;;;;;;;;;13.60;99.90;;;;;;5135911;27;19927;-64
2023/09/27 03:39:52;;;;;;;;;;;13.60;99.90;;;;;;5135890;27;20011;-64
2023/09/27 03:42:21;;;;;;;;;;;13.20;99.90;;;;;;5135886;27;20284;-65
2023/09/27 03:44:48;;;;;;;;;;;13.40;99.90;;;;;;5135064;27;20014;-63
2023/09/27 03:47:14;;;;;;;;;;;13.40;99.90;;;;;;5135783;27;20308;-64
2023/09/27 03:49:40;;;;;;;;;;;13.50;99.90;;;;;;5135745;27;20005;-64
2023/09/27 03:52:06;;;;;;;;;;;12.90;99.90;;;;;;5135681;27;19926;-64
2023/09/27 03:54:32;;;;;;;;;;;13.20;99.90;;;;;;5135629;27;20278;-63
2023/09/27 03:56:58;;;;;;;;;;;13.00;99.90;;;;;;5135782;27;19919;-63
2023/09/27 03:59:23;;;;;;;;;;;13.30;99.90;;;;;;5135518;27;19927;-64
2023/09/27 04:01:49;;;;;;;;;;;13.20;99.90;;;;;;5135472;27;20066;-64
2023/09/27 04:04:15;;;;;;;;;;;13.40;99.90;;;;;;5135437;27;19923;-65
2023/09/27 04:06:40;;;;;;;;;;;13.10;99.90;;;;;;5135344;27;19974;-64
2023/09/27 04:09:07;;;;;;;;;;;13.20;99.90;;;;;;5135335;27;19923;-64
2023/09/27 04:11:33;;;;;;;;;;;13.40;99.90;;;;;;5135327;27;19920;-64
2023/09/27 04:13:58;;;;;;;;;;;13.40;99.90;;;;;;5135296;27;19987;-64
2023/09/27 04:16:26;;;;;;;;;;;12.90;99.90;;;;;;5134744;27;19930;-64
2023/09/27 04:18:51;;;;;;;;;;;13.00;99.90;;;;;;5135196;27;19923;-65
2023/09/27 04:21:17;;;;;;;;;;;13.20;99.90;;;;;;5116949;27;19919;-64
2023/09/27 04:23:42;;;;;;;;;;;13.20;99.90;;;;;;5135191;27;19926;-64
2023/09/27 04:26:09;;;;;;;;;;;13.00;99.90;;;;;;5135270;27;19971;-64
2023/09/27 04:28:34;;;;;;;;;;;13.30;99.90;;;;;;5135188;27;19919;-64
2023/09/27 04:31:00;;;;;;;;;;;13.10;99.90;;;;;;5135056;27;20010;-64
2023/09/27 04:33:26;;;;;;;;;;;12.60;99.90;;;;;;5134886;27;19993;-64
2023/09/27 04:35:51;;;;;;;;;;;12.90;99.90;;;;;;5134825;27;20407;-64
2023/09/27 04:38:17;;;;;;;;;;;12.90;99.90;;;;;;5134749;27;19923;-64
2023/09/27 04:40:43;;;;;;;;;;;12.90;99.90;;;;;;5134745;27;19919;-65
2023/09/27 04:43:08;;;;;;;;;;;12.60;99.90;;;;;;5134728;27;19919;-64
2023/09/27 04:45:34;;;;;;;;;;;13.20;99.90;;;;;;5134601;27;19919;-64
2023/09/27 04:48:00;;;;;;;;;;;12.60;99.90;;;;;;5134584;27;20013;-64
2023/09/27 04:50:25;;;;;;;;;;;12.80;99.90;;;;;;5134494;27;19923;-64
2023/09/27 04:52:51;;;;;;;;;;;13.10;99.90;;;;;;5134479;27;19923;-63
2023/09/27 04:55:17;;;;;;;;;;;12.80;99.90;;;;;;5133213;27;19931;-64
2023/09/27 04:57:42;;;;;;;;;;;12.90;99.90;;;;;;5134388;27;19975;-64
2023/09/27 05:00:22;;;;;;;;;;;13.20;99.90;;;;;;5134330;27;19920;-64
2023/09/27 05:02:48;;;;;;;;;;;12.90;99.90;;;;;;5134343;27;19949;-64
2023/09/27 05:05:14;;;;;;;;;;;12.60;99.90;;;;;;5134245;27;19925;-64
2023/09/27 05:07:40;;;;;;;;;;;12.70;99.90;;;;;;5134160;27;20313;-64
2023/09/27 05:10:06;;;;;;;;;;;12.10;99.90;;;;;;5134124;27;19976;-64
2023/09/27 05:12:31;;;;;;;;;;;12.70;99.90;;;;;;5133903;27;19920;-64
2023/09/27 05:14:57;;;;;;;;;;;12.70;99.90;;;;;;5133982;27;19926;-64
2023/09/27 05:17:24;;;;;;;;;;;12.70;99.90;;;;;;5133468;27;19924;-65
2023/09/27 05:19:50;;;;;;;;;;;12.50;99.90;;;;;;5115902;27;19923;-64
2023/09/27 05:22:19;;;;;;;;;;;12.30;99.90;;;;;;5133942;27;20481;-64
2023/09/27 05:24:45;;;;;;;;;;;12.60;99.90;;;;;;5133857;27;20060;-63
2023/09/27 05:27:10;;;;;;;;;;;12.80;99.90;;;;;;5115718;27;20055;-64
2023/09/27 05:29:36;;;;;;;;;;;12.80;99.90;;;;;;5133728;27;20405;-65
2023/09/27 05:32:02;;;;;;;;;;;12.60;99.90;;;;;;5133711;27;19920;-63
2023/09/27 05:34:29;;;;;;;;;;;12.50;99.90;;;;;;5133756;27;19919;-65
2023/09/27 05:36:55;;;;;;;;;;;12.70;99.90;;;;;;5133601;27;19923;-64
2023/09/27 05:39:22;;;;;;;;;;;12.20;99.90;;;;;;5098666;27;19923;-64
2023/09/27 05:41:47;;;;;;;;;;;12.10;99.90;;;;;;5133899;27;19919;-64
2023/09/27 05:44:13;;;;;;;;;;;12.30;99.90;;;;;;5133842;27;20465;-65
2023/09/27 05:46:40;;;;;;;;;;;12.90;99.90;;;;;;5133692;27;19923;-63
2023/09/27 05:49:09;;;;;;;;;;;12.70;99.90;;;;;;5133506;27;19923;-64
2023/09/27 05:51:35;;;;;;;;;;;12.40;99.90;;;;;;5132979;27;19923;-64
2023/09/27 05:54:01;;;;;;;;;;;12.30;99.90;;;;;;5112318;27;20401;-64
2023/09/27 05:56:27;;;;;;;;;;;13.10;99.90;;;;;;5111257;28;19923;-64
2023/09/27 05:58:53;;;;;;;;;;;12.50;99.90;;;;;;5127604;27;20367;-64
2023/09/27 06:01:19;;;;;;;;;;;12.30;99.90;;;;;;5113888;27;19931;-64
2023/09/27 06:03:49;;;;;;;;;;;12.80;99.90;;;;;;5132404;27;20014;-64
2023/09/27 06:06:15;;;;;;;;;;;12.90;99.90;;;;;;5132213;27;19982;-64
2023/09/27 06:08:40;;;;;;;;;;;12.50;99.90;;;;;;5131564;27;19971;-64
2023/09/27 06:11:07;;;;;;;;;;;12.80;99.90;;;;;;5132571;27;19923;-64
2023/09/27 06:13:32;;;;;;;;;;;13.30;99.90;;;;;;5132310;27;19920;-64
2023/09/27 06:16:01;;;;;;;;;;;13.20;99.90;;;;;;5131184;27;19980;-64
2023/09/27 06:18:28;;;;;;;;;;;12.60;99.90;;;;;;5108676;27;19974;-64
2023/09/27 06:20:54;;;;;;;;;;;12.80;99.90;;;;;;5112185;28;20036;-64
2023/09/27 06:23:19;;;;;;;;;;;12.90;99.90;;;;;;5129349;28;19970;-64
2023/09/27 06:25:46;;;;;;;;;;;12.90;99.90;;;;;;5131926;28;20056;-63
2023/09/27 06:28:13;;;;;;;;;;;13.10;99.90;;;;;;5132119;28;20319;-68
2023/09/27 06:30:40;;;;;;;;;;;13.90;99.90;;;;;;5132440;28;20010;-63
2023/09/27 06:33:06;;;;;;;;;;;13.10;99.90;;;;;;5131289;28;19919;-64
2023/09/27 06:35:32;;;;;;;;;;;13.20;99.90;;;;;;5132217;28;19923;-64
2023/09/27 06:38:00;;;;;;;;;;;13.40;99.90;;;;;;5113663;28;19919;-64
2023/09/27 06:40:26;;;;;;;;;;;13.20;99.90;;;;;;5124919;28;19920;-64
2023/09/27 06:42:52;;;;;;;;;;;13.50;99.90;;;;;;5112548;28;19930;-64
2023/09/27 06:45:18;;;;;;;;;;;13.70;99.90;;;;;;5114551;28;19919;-65
2023/09/27 06:47:47;;;;;;;;;;;14.10;99.90;;;;;;5119662;28;19983;-62
2023/09/27 06:50:14;;;;;;;;;;;13.40;99.90;;;;;;5131982;28;19923;-63
2023/09/27 06:52:40;;;;;;;;;;;13.70;99.90;;;;;;5131454;28;19968;-63
2023/09/27 06:55:19;;;;;;;;;;;14.10;99.90;;;;;;5131653;28;19969;-63
2023/09/27 06:57:46;;;;;;;;;;;14.30;99.90;;;;;;5131581;28;20006;-62
2023/09/27 07:00:30;;;;;;;;;;;14.00;99.90;;;;;;5130822;28;20019;-63
2023/09/27 07:02:56;;;;;;;;;;;14.30;99.90;;;;;;5098307;28;20022;-64
2023/09/27 07:05:22;;;;;;;;;;;14.40;99.90;;;;;;5111772;28;19993;-63
2023/09/27 07:07:49;;;;;;;;;;;14.50;99.90;;;;;;5123938;28;20379;-64
2023/09/27 07:10:14;;;;;;;;;;;14.60;99.90;;;;;;5110436;28;19927;-62
2023/09/27 07:12:41;;;;;;;;;;;15.30;99.90;;;;;;5131780;28;20407;-63
2023/09/27 07:15:13;;;;;;;;;;;14.30;99.90;;;;;;5113218;28;19923;-63
2023/09/27 07:17:39;;;;;;;;;;;14.60;99.90;;;;;;5131712;27;20366;-63
2023/09/27 07:20:12;;;;;;;;;;;14.30;99.90;;;;;;5135654;27;19923;-63
2023/09/27 07:22:38;;;;;;;;;;;15.20;99.90;;;;;;5136364;27;19923;-63
2023/09/27 07:25:08;;;;;;;;;;;15.10;99.90;;;;;;5135938;27;20283;-63
2023/09/27 07:27:35;;;;;;;;;;;15.50;99.90;;;;;;5135261;27;19963;-63
2023/09/27 07:30:01;;;;;;;;;;;15.20;99.90;;;;;;5135728;27;19966;-62
2023/09/27 07:32:27;;;;;;;;;;;15.70;99.90;;;;;;5135808;27;20362;-62
2023/09/27 07:34:52;;;;;;;;;;;15.10;99.90;;;;;;5136086;27;20283;-63
2023/09/27 07:37:18;;;;;;;;;;;14.90;99.90;;;;;;5135833;27;19942;-63
2023/09/27 07:39:45;;;;;;;;;;;15.60;99.90;;;;;;5135932;27;20375;-63
2023/09/27 07:42:11;;;;;;;;;;;15.30;99.90;;;;;;5135852;27;19942;-63
2023/09/27 07:44:39;;;;;;;;;;;15.80;99.90;;;;;;5135830;27;20388;-63
2023/09/27 07:47:04;;;;;;;;;;;15.60;99.90;;;;;;5135798;27;19931;-62
2023/09/27 07:49:30;;;;;;;;;;;15.70;99.90;;;;;;5117316;27;19919;-63
2023/09/27 07:51:56;;;;;;;;;;;16.00;99.90;;;;;;5135695;27;19970;-62
2023/09/27 07:54:23;;;;;;;;;;;15.70;99.90;;;;;;5135709;27;20030;-63
2023/09/27 07:56:50;;;;;;;;;;;15.40;99.90;;;;;;5135652;27;19935;-63
2023/09/27 07:59:15;;;;;;;;;;;16.10;99.90;;;;;;5135639;27;19920;-63
2023/09/27 08:01:41;;;;;;;;;;;16.10;99.90;;;;;;5135856;27;19926;-62
2023/09/27 08:04:08;;;;;;;;;;;16.00;99.90;;;;;;5135603;27;20605;-63
2023/09/27 08:06:34;;;;;;;;;;;16.40;99.90;;;;;;5135450;27;19919;-62
2023/09/27 08:09:00;;;;;;;;;;;16.10;99.90;;;;;;5135498;27;19928;-63
2023/09/27 08:11:26;;;;;;;;;;;16.00;99.90;;;;;;5135499;27;19976;-62
2023/09/27 08:13:52;;;;;;;;;;;16.60;99.90;;;;;;5135645;27;19925;-62
2023/09/27 08:16:17;;;;;;;;;;;16.40;99.90;;;;;;5135032;27;20370;-63
2023/09/27 08:18:43;;;;;;;;;;;16.20;99.90;;;;;;5116802;27;19923;-63
2023/09/27 08:21:09;;;;;;;;;;;17.00;99.90;;;;;;5135185;27;19924;-63
2023/09/27 08:23:34;;;;;;;;;;;16.60;99.90;;;;;;5135120;27;19919;-63
2023/09/27 08:26:00;;;;;;;;;;;17.20;99.90;;;;;;5134990;27;20017;-63
2023/09/27 08:28:27;;;;;;;;;;;17.00;99.90;;;;;;5135354;27;19976;-62
2023/09/27 08:30:59;;;;;;;;;;;16.90;99.90;;;;;;5134825;27;19986;-63
2023/09/27 08:33:25;;;;;;;;;;;17.30;99.90;;;;;;5134858;27;19930;-63
2023/09/27 08:35:55;;;;;;;;;;;17.60;99.90;;;;;;5134781;27;19927;-63
2023/09/27 08:38:21;;;;;;;;;;;17.70;99.90;;;;;;5116432;27;20022;-63
2023/09/27 08:40:47;;;;;;;;;;;17.60;99.90;;;;;;5134803;27;20009;-63
2023/09/27 08:43:14;;;;;;;;;;;18.20;99.90;;;;;;5134745;27;19967;-63
2023/09/27 08:45:40;;;;;;;;;;;17.90;99.90;;;;;;5134344;27;19934;-63
2023/09/27 08:48:08;;;;;;;;;;;17.60;99.90;;;;;;5134535;27;19923;-63
2023/09/27 08:50:34;;;;;;;;;;;17.90;99.90;;;;;;5134529;27;19991;-63
2023/09/27 08:53:00;;;;;;;;;;;18.10;99.90;;;;;;5134483;27;20461;-63
2023/09/27 08:55:26;;;;;;;;;;;17.80;99.90;;;;;;5134003;27;19978;-63
2023/09/27 08:57:53;;;;;;;;;;;20.20;99.90;;;;;;5134107;27;20399;-63
2023/09/27 09:00:21;;;;;;;;;;;18.30;99.90;;;;;;5115715;27;20310;-65
2023/09/27 09:02:56;;;;;;;;;;;18.50;99.90;;;;;;5134216;27;19975;-63
2023/09/27 09:05:22;;;;;;;;;;;18.50;99.90;;;;;;5134278;27;19974;-64
2023/09/27 09:07:48;;;;;;;;;;;18.60;99.90;;;;;;5134117;27;19989;-62
2023/09/27 09:10:15;;;;;;;;;;;18.50;99.90;;;;;;5134001;27;19927;-63
2023/09/27 09:12:44;;;;;;;;;;;18.60;99.90;;;;;;5133610;27;19926;-63
2023/09/27 09:15:15;;;;;;;;;;;19.10;99.90;;;;;;5133725;27;20363;-63
2023/09/27 09:17:47;;;;;;;;;;;18.90;99.90;;;;;;5133935;27;19919;-63
2023/09/27 09:20:17;;;;;;;;;;;18.90;99.90;;;;;;5134064;27;19919;-62
2023/09/27 09:22:43;;;;;;;;;;;20.50;99.90;;;;;;5133827;27;19927;-63
2023/09/27 09:25:09;;;;;;;;;;;19.30;99.90;;;;;;5133584;27;19935;-63
2023/09/27 09:27:35;;;;;;;;;;;18.90;99.90;;;;;;5133482;27;19919;-63
2023/09/27 09:30:03;;;;;;;;;;;19.30;99.90;;;;;;5133492;27;19926;-63
2023/09/27 09:32:29;;;;;;;;;;;19.40;99.90;;;;;;5115481;27;20068;-63
2023/09/27 09:34:55;;;;;;;;;;;19.80;99.90;;;;;;5133737;27;19919;-63
2023/09/27 09:37:28;;;;;;;;;;;19.40;99.90;;;;;;5133550;27;19919;-63
2023/09/27 09:40:05;;;;;;;;;;;19.80;99.90;;;;;;5133936;27;20018;-63
2023/09/27 09:42:32;;;;;;;;;;;19.80;99.90;;;;;;5133034;27;19919;-63
2023/09/27 09:45:06;;;;;;;;;;;19.70;99.90;;;;;;5133610;27;20328;-62
2023/09/27 09:47:35;;;;;;;;;;;19.80;99.90;;;;;;5133630;27;20256;-62
2023/09/27 09:50:01;;;;;;;;;;;19.90;99.90;;;;;;5133509;27;19962;-63
2023/09/27 09:52:28;;;;;;;;;;;19.80;99.90;;;;;;5133510;27;19966;-62
2023/09/27 09:54:57;;;;;;;;;;;19.80;99.90;;;;;;5133739;27;19931;-64
2023/09/27 09:57:35;;;;;;;;;;;19.50;99.90;;;;;;5133560;27;19919;-62
2023/09/27 10:00:11;;;;;;;;;;;19.90;99.90;;;;;;5131004;27;19919;-63
2023/09/27 10:02:43;;;;;;;;;;;20.00;99.90;;;;;;5131939;27;19964;-63
2023/09/27 10:05:10;;;;;;;;;;;19.90;99.90;;;;;;5133429;27;20622;-63
2023/09/27 10:07:36;;;;;;;;;;;19.90;99.90;;;;;;5133360;27;19964;-62
2023/09/27 10:10:03;;;;;;;;;;;20.10;99.90;;;;;;5133591;27;19919;-62
2023/09/27 10:12:29;;;;;;;;;;;20.30;99.90;;;;;;5133317;27;19919;-63
2023/09/27 10:14:55;;;;;;;;;;;20.50;99.90;;;;;;5133333;27;19931;-63
2023/09/27 10:17:21;;;;;;;;;;;19.90;99.90;;;;;;5133096;27;19969;-63
2023/09/27 10:20:05;;;;;;;;;;;20.40;99.90;;;;;;5133417;27;19919;-63
2023/09/27 10:22:31;;;;;;;;;;;20.20;99.90;;;;;;5133509;28;20303;-63
2023/09/27 10:24:57;;;;;;;;;;;19.80;99.90;;;;;;5133584;28;20017;-63
2023/09/27 10:27:43;;;;;;;;;;;19.80;99.90;;;;;;5133085;28;19919;-63
2023/09/27 10:30:09;;;;;;;;;;;19.70;99.90;;;;;;5132869;28;19924;-63
2023/09/27 10:32:34;;;;;;;;;;;19.40;99.90;;;;;;5132668;28;20388;-63
2023/09/27 10:35:14;;;;;;;;;;;19.80;99.90;;;;;;5133283;28;19924;-64
2023/09/27 10:37:56;;;;;;;;;;;19.60;99.90;;;;;;5132954;28;19928;-63
2023/09/27 10:40:22;;;;;;;;;;;19.50;99.90;;;;;;5132975;28;19919;-64
2023/09/27 10:42:48;;;;;;;;;;;19.70;99.90;;;;;;5132783;28;20288;-63
2023/09/27 10:45:13;;;;;;;;;;;19.80;99.90;;;;;;5132802;28;19919;-63
2023/09/27 10:47:39;;;;;;;;;;;19.50;99.90;;;;;;5132509;28;19945;-63
2023/09/27 10:50:05;;;;;;;;;;;19.50;99.90;;;;;;5132861;28;20091;-63
2023/09/27 10:52:31;;;;;;;;;;;19.80;99.90;;;;;;5133560;27;20013;-63
2023/09/27 10:55:07;;;;;;;;;;;20.10;99.90;;;;;;5136810;27;19930;-63
2023/09/27 10:57:33;;;;;;;;;;;19.60;99.90;;;;;;5136783;27;19942;-63
2023/09/27 10:59:58;;;;;;;;;;;20.20;99.90;;;;;;5136699;27;19919;-63
2023/09/27 11:02:28;;;;;;;;;;;19.60;99.90;;;;;;5136665;27;20339;-63
2023/09/27 11:04:55;;;;;;;;;;;20.00;99.90;;;;;;5136653;27;20035;-63
2023/09/27 11:07:20;;;;;;;;;;;20.00;99.90;;;;;;5136575;27;19923;-63
2023/09/27 11:09:48;;;;;;;;;;;19.70;99.90;;;;;;5136485;27;19923;-63
2023/09/27 11:12:20;;;;;;;;;;;20.50;99.90;;;;;;5136488;27;19923;-63
2023/09/27 11:14:45;;;;;;;;;;;20.10;99.90;;;;;;5136594;27;19931;-63
2023/09/27 11:17:23;;;;;;;;;;;19.90;99.90;;;;;;5136235;27;19991;-63
2023/09/27 11:19:49;;;;;;;;;;;19.90;99.90;;;;;;5136078;27;20401;-63
2023/09/27 11:22:25;;;;;;;;;;;19.70;99.90;;;;;;5136139;27;20006;-63
2023/09/27 11:24:50;;;;;;;;;;;20.20;99.90;;;;;;5136303;27;19970;-63
2023/09/27 11:27:18;;;;;;;;;;;20.20;99.90;;;;;;5127818;27;20039;-63
2023/09/27 11:29:49;;;;;;;;;;;20.50;99.90;;;;;;5114809;28;20022;-64
2023/09/27 11:32:15;;;;;;;;;;;20.20;99.90;;;;;;5118548;27;19927;-63
2023/09/27 11:34:40;;;;;;;;;;;20.40;99.90;;;;;;5135101;27;19929;-63
2023/09/27 11:37:16;;;;;;;;;;;20.30;99.90;;;;;;5116695;27;19920;-63
2023/09/27 11:39:50;;;;;;;;;;;20.30;99.90;;;;;;5135591;27;19964;-62
2023/09/27 11:42:23;;;;;;;;;;;20.60;99.90;;;;;;5134383;27;19927;-63
2023/09/27 11:45:04;;;;;;;;;;;20.50;99.90;;;;;;5135326;27;19923;-62
2023/09/27 11:47:30;;;;;;;;;;;20.40;99.90;;;;;;5135087;27;20010;-63
2023/09/27 11:49:56;;;;;;;;;;;20.40;99.90;;;;;;5134781;27;19923;-63
2023/09/27 11:52:21;;;;;;;;;;;20.50;99.90;;;;;;5134676;27;19920;-63
2023/09/27 11:54:47;;;;;;;;;;;20.30;99.90;;;;;;5135725;27;19926;-63
2023/09/27 11:57:12;;;;;;;;;;;20.20;99.90;;;;;;5133842;27;19931;-63
2023/09/27 11:59:38;;;;;;;;;;;20.50;99.90;;;;;;5116550;27;19923;-63
2023/09/27 12:02:04;;;;;;;;;;;20.80;99.90;;;;;;5134861;27;19987;-63
2023/09/27 12:04:30;;;;;;;;;;;20.40;99.90;;;;;;5131202;27;19968;-62
2023/09/27 12:06:55;;;;;;;;;;;20.50;99.90;;;;;;5109712;27;19939;-63
2023/09/27 12:09:21;;;;;;;;;;;20.40;99.90;;;;;;5121204;27;20014;-64
2023/09/27 12:11:46;;;;;;;;;;;20.70;99.90;;;;;;5113833;28;19920;-64
2023/09/27 12:14:12;;;;;;;;;;;20.70;99.90;;;;;;5126832;27;20004;-64
2023/09/27 12:16:38;;;;;;;;;;;20.70;99.90;;;;;;5134490;27;20027;-63
2023/09/27 12:19:04;;;;;;;;;;;20.60;99.90;;;;;;5123438;27;19972;-64
2023/09/27 12:21:34;;;;;;;;;;;21.50;99.90;;;;;;5095968;27;19939;-63
2023/09/27 12:24:02;;;;;;;;;;;20.80;99.90;;;;;;5116811;27;19924;-64
2023/09/27 12:26:28;;;;;;;;;;;21.40;99.90;;;;;;5125506;27;19950;-63
2023/09/27 12:28:54;;;;;;;;;;;21.40;99.90;;;;;;5122092;27;19929;-67
2023/09/27 12:31:20;;;;;;;;;;;21.60;99.90;;;;;;5119266;27;19928;-64
2023/09/27 12:33:45;;;;;;;;;;;21.80;99.90;;;;;;5113930;28;20375;-63
2023/09/27 12:36:11;;;;;;;;;;;22.10;99.90;;;;;;5124762;27;19930;-62
2023/09/27 12:38:37;;;;;;;;;;;22.30;99.90;;;;;;5134179;27;19919;-65
2023/09/27 12:41:03;;;;;;;;;;;22.50;99.90;;;;;;5133874;27;19977;-62
2023/09/27 12:43:29;;;;;;;;;;;22.50;99.90;;;;;;5133506;27;19919;-63
2023/09/27 12:45:55;;;;;;;;;;;22.60;99.90;;;;;;5133801;27;19930;-65
2023/09/27 12:48:20;;;;;;;;;;;22.80;99.90;;;;;;5133763;27;20368;-63
2023/09/27 12:50:46;;;;;;;;;;;22.70;99.90;;;;;;5133893;27;19946;-66
2023/09/27 12:53:12;;;;;;;;;;;22.80;99.90;;;;;;5133744;27;19919;-62
2023/09/27 12:55:41;;;;;;;;;;;22.60;99.90;;;;;;5133658;27;20398;-64
2023/09/27 12:58:07;;;;;;;;;;;23.10;99.90;;;;;;5133090;27;20014;-63
2023/09/27 13:00:35;;;;;;;;;;;23.40;99.90;;;;;;5123313;27;19930;-64
2023/09/27 13:03:01;;;;;;;;;;;23.60;99.90;;;;;;5133246;27;20588;-63
2023/09/27 13:05:27;;;;;;;;;;;23.40;99.90;;;;;;5133215;27;19930;-62
2023/09/27 13:07:52;;;;;;;;;;;24.00;99.90;;;;;;5133651;27;19919;-63
2023/09/27 13:10:18;;;;;;;;;;;23.70;99.90;;;;;;5133718;27;20010;-62
2023/09/27 13:12:44;;;;;;;;;;;24.00;99.90;;;;;;5133689;27;19965;-62
2023/09/27 13:15:10;;;;;;;;;;;23.80;99.90;;;;;;5133517;27;19980;-62
2023/09/27 13:17:36;;;;;;;;;;;23.90;99.90;;;;;;5132114;27;19923;-62
2023/09/27 13:20:01;;;;;;;;;;;24.10;99.90;;;;;;5133512;27;19923;-63
2023/09/27 13:22:27;;;;;;;;;;;24.30;99.90;;;;;;5133452;27;19977;-63
2023/09/27 13:24:52;;;;;;;;;;;24.60;99.90;;;;;;5133044;27;19919;-62
2023/09/27 13:27:19;;;;;;;;;;;24.60;99.90;;;;;;5133400;27;19930;-63
2023/09/27 13:29:44;;;;;;;;;;;24.60;99.90;;;;;;5133304;27;19923;-62
2023/09/27 13:32:12;;;;;;;;;;;25.00;99.90;;;;;;5133283;27;19992;-62
2023/09/27 13:34:38;;;;;;;;;;;25.30;99.90;;;;;;5133153;27;19919;-63
2023/09/27 13:37:04;;;;;;;;;;;25.10;99.90;;;;;;5133071;27;19919;-63
2023/09/27 13:39:30;;;;;;;;;;;25.10;99.90;;;;;;5133174;27;19973;-63
2023/09/27 13:41:56;;;;;;;;;;;24.90;99.90;;;;;;5132994;27;20382;-62
2023/09/27 13:44:22;;;;;;;;;;;25.10;99.90;;;;;;5133222;27;19931;-65
2023/09/27 13:46:48;;;;;;;;;;;25.30;99.90;;;;;;5133157;27;20351;-63
2023/09/27 13:49:15;;;;;;;;;;;25.00;99.90;;;;;;5133276;27;19930;-62
2023/09/27 13:51:40;;;;;;;;;;;25.00;99.90;;;;;;5133285;27;19919;-63
2023/09/27 13:54:07;;;;;;;;;;;25.20;99.90;;;;;;5133143;27;20373;-62
2023/09/27 13:56:33;;;;;;;;;;;25.20;99.90;;;;;;5132886;27;19923;-63
2023/09/27 13:59:01;;;;;;;;;;;25.80;99.90;;;;;;5132801;27;19927;-63
2023/09/27 14:01:30;;;;;;;;;;;26.00;99.90;;;;;;5132548;27;20282;-63
2023/09/27 14:03:58;;;;;;;;;;;25.90;99.90;;;;;;5132404;27;19919;-62
2023/09/27 14:06:24;;;;;;;;;;;25.90;99.90;;;;;;5130018;27;19972;-64
2023/09/27 14:08:49;;;;;;;;;;;25.20;99.90;;;;;;5114328;27;19923;-62
2023/09/27 14:11:16;;;;;;;;;;;25.30;99.90;;;;;;5133111;27;20006;-62
2023/09/27 14:13:43;;;;;;;;;;;25.20;99.90;;;;;;5132805;27;19919;-62